createdAt,value
2023-03-17T00:01:02.963Z,3.91
2023-03-17T00:02:43.312Z,3.94
2023-03-17T00:04:23.561Z,3.94
2023-03-17T00:06:04.023Z,3.94
2023-03-17T00:07:44.384Z,3.91
2023-03-17T00:09:24.788Z,3.85
2023-03-17T00:11:05.204Z,3.87
2023-03-17T00:12:45.587Z,3.82
2023-03-17T00:14:25.988Z,3.85
2023-03-17T00:16:06.361Z,3.91
2023-03-17T00:17:46.812Z,3.92
2023-03-17T00:19:27.326Z,3.96
2023-03-17T00:21:07.694Z,3.96
2023-03-17T00:22:48.111Z,3.91
2023-03-17T00:24:28.674Z,3.87
2023-03-17T00:26:08.946Z,3.84
2023-03-17T00:27:49.272Z,3.84
2023-03-17T00:29:29.665Z,3.85
2023-03-17T00:31:10.134Z,3.85
2023-03-17T00:32:50.480Z,3.85
2023-03-17T00:34:30.823Z,3.85
2023-03-17T00:36:11.159Z,3.82
2023-03-17T00:37:51.547Z,3.82
2023-03-17T00:39:31.952Z,3.82
2023-03-17T00:41:12.430Z,3.78
2023-03-17T00:42:52.713Z,3.88
2023-03-17T00:44:32.978Z,3.91
2023-03-17T00:46:13.402Z,3.96
2023-03-17T00:47:53.765Z,3.98
2023-03-17T00:49:34.133Z,4.01
2023-03-17T00:51:14.386Z,4.02
2023-03-17T00:52:54.796Z,4.05
2023-03-17T00:54:35.134Z,4.05
2023-03-17T00:56:15.509Z,4.09
2023-03-17T00:57:55.888Z,4.13
2023-03-17T00:59:36.368Z,4.13
2023-03-17T01:01:16.820Z,4.12
2023-03-17T01:02:57.281Z,4.16
2023-03-17T01:04:37.566Z,4.19
2023-03-17T01:06:18.032Z,4.22
2023-03-17T01:07:58.390Z,4.2
2023-03-17T01:09:38.769Z,4.25
2023-03-17T01:11:19.151Z,4.32
2023-03-17T01:12:59.595Z,4.35
2023-03-17T01:14:39.969Z,4.35
2023-03-17T01:16:20.471Z,4.43
2023-03-17T01:18:00.802Z,4.47
2023-03-17T01:19:41.213Z,4.52
2023-03-17T01:21:21.678Z,4.54
2023-03-17T01:23:02.028Z,4.5
2023-03-17T01:24:42.423Z,4.46
2023-03-17T01:26:25.647Z,4.44
2023-03-17T01:28:03.094Z,4.42
2023-03-17T01:29:43.357Z,4.39
2023-03-17T01:31:23.804Z,4.42
2023-03-17T01:33:04.365Z,4.39
2023-03-17T01:34:44.658Z,4.42
2023-03-17T01:36:25.035Z,4.47
2023-03-17T01:38:05.425Z,4.5
2023-03-17T01:39:45.871Z,4.49
2023-03-17T01:41:26.204Z,4.43
2023-03-17T01:43:06.682Z,4.44
2023-03-17T01:44:47.035Z,4.46
2023-03-17T01:46:27.652Z,4.44
2023-03-17T01:48:07.825Z,4.42
2023-03-17T01:49:48.168Z,4.44
2023-03-17T01:51:28.608Z,4.46
2023-03-17T01:53:09.002Z,4.44
2023-03-17T01:54:49.443Z,4.39
2023-03-17T01:56:29.864Z,4.37
2023-03-17T01:58:10.218Z,4.35
2023-03-17T01:59:50.665Z,4.32
2023-03-17T02:01:31.008Z,4.28
2023-03-17T02:03:11.462Z,4.22
2023-03-17T02:04:51.920Z,4.15
2023-03-17T02:06:32.302Z,4.12
2023-03-17T02:08:12.743Z,4.09
2023-03-17T02:09:53.113Z,4.09
2023-03-17T02:11:33.430Z,4.04
2023-03-17T02:13:13.813Z,4.01
2023-03-17T02:14:54.266Z,3.99
2023-03-17T02:16:34.744Z,3.96
2023-03-17T02:18:15.085Z,3.95
2023-03-17T02:19:55.455Z,3.95
2023-03-17T02:21:35.845Z,3.94
2023-03-17T02:23:16.240Z,3.95
2023-03-17T02:24:56.643Z,3.98
2023-03-17T02:26:37.096Z,3.95
2023-03-17T02:28:17.466Z,3.92
2023-03-17T02:29:57.912Z,3.95
2023-03-17T02:31:38.286Z,3.94
2023-03-17T02:33:18.742Z,3.95
2023-03-17T02:34:59.199Z,3.96
2023-03-17T02:36:39.697Z,3.98
2023-03-17T02:38:19.992Z,3.99
2023-03-17T02:40:00.397Z,4.02
2023-03-17T02:41:40.776Z,4.04
2023-03-17T02:43:21.199Z,4.02
2023-03-17T02:45:01.653Z,4.01
2023-03-17T02:46:41.966Z,4.02
2023-03-17T02:48:22.306Z,4.05
2023-03-17T02:50:02.701Z,4.06
2023-03-17T02:51:43.123Z,4.12
2023-03-17T02:53:23.511Z,4.16
2023-03-17T02:55:03.879Z,4.19
2023-03-17T02:56:44.210Z,4.23
2023-03-17T02:58:24.624Z,4.28
2023-03-17T03:00:05.039Z,4.28
2023-03-17T03:01:45.488Z,4.35
2023-03-17T03:03:25.782Z,4.37
2023-03-17T03:05:06.221Z,4.37
2023-03-17T03:06:46.574Z,4.35
2023-03-17T03:08:26.939Z,4.29
2023-03-17T03:10:07.412Z,4.29
2023-03-17T03:11:47.714Z,4.26
2023-03-17T03:13:28.116Z,4.22
2023-03-17T03:15:08.467Z,4.2
2023-03-17T03:16:48.873Z,4.22
2023-03-17T03:18:29.313Z,4.19
2023-03-17T03:20:09.767Z,4.13
2023-03-17T03:21:50.181Z,4.09
2023-03-17T03:23:30.576Z,4.06
2023-03-17T03:25:11.009Z,4.05
2023-03-17T03:26:51.288Z,4.06
2023-03-17T03:28:31.613Z,4.06
2023-03-17T03:30:12.088Z,4.04
2023-03-17T03:31:52.550Z,4.06
2023-03-17T03:33:33.015Z,4.05
2023-03-17T03:35:13.376Z,4.02
2023-03-17T03:36:53.869Z,4.04
2023-03-17T03:38:34.270Z,4.02
2023-03-17T03:40:14.668Z,4.02
2023-03-17T03:41:55.088Z,3.99
2023-03-17T03:43:35.504Z,4.01
2023-03-17T03:45:15.929Z,4.06
2023-03-17T03:46:56.381Z,4.09
2023-03-17T03:48:36.752Z,4.17
2023-03-17T03:50:17.134Z,4.2
2023-03-17T03:51:57.491Z,4.2
2023-03-17T03:53:37.867Z,4.12
2023-03-17T03:55:18.252Z,4.05
2023-03-17T03:56:58.657Z,4.01
2023-03-17T03:58:39.073Z,3.98
2023-03-17T04:00:19.496Z,3.95
2023-03-17T04:01:59.822Z,3.92
2023-03-17T04:03:40.133Z,3.88
2023-03-17T04:05:20.555Z,3.88
2023-03-17T04:07:00.975Z,3.85
2023-03-17T04:08:41.362Z,3.78
2023-03-17T04:10:21.877Z,3.74
2023-03-17T04:12:02.299Z,3.63
2023-03-17T04:13:42.770Z,3.58
2023-03-17T04:15:23.158Z,3.51
2023-03-17T04:17:03.568Z,3.46
2023-03-17T04:18:44.033Z,3.37
2023-03-17T04:20:24.456Z,3.3
2023-03-17T04:22:04.880Z,3.26
2023-03-17T04:23:45.207Z,3.19
2023-03-17T04:25:25.694Z,3.16
2023-03-17T04:27:06.395Z,3.18
2023-03-17T04:28:46.446Z,3.13
2023-03-17T04:30:26.784Z,3.12
2023-03-17T04:32:07.172Z,3.12
2023-03-17T04:33:47.610Z,3.06
2023-03-17T04:35:27.925Z,3.02
2023-03-17T04:37:08.247Z,2.98
2023-03-17T04:38:48.596Z,2.94
2023-03-17T04:40:29.286Z,2.94
2023-03-17T04:42:09.455Z,2.92
2023-03-17T04:43:49.758Z,3
2023-03-17T04:45:30.194Z,3.03
2023-03-17T04:47:10.560Z,3.06
2023-03-17T04:48:50.907Z,3.08
2023-03-17T04:50:31.578Z,3.09
2023-03-17T04:52:11.643Z,3.15
2023-03-17T04:53:52.136Z,3.2
2023-03-17T04:55:32.523Z,3.26
2023-03-17T04:57:12.977Z,3.29
2023-03-17T04:58:53.381Z,3.26
2023-03-17T05:00:33.819Z,3.39
2023-03-17T05:02:14.292Z,3.44
2023-03-17T05:03:54.688Z,3.47
2023-03-17T05:05:35.074Z,3.47
2023-03-17T05:07:15.475Z,3.43
2023-03-17T05:08:55.958Z,3.4
2023-03-17T05:10:36.346Z,3.37
2023-03-17T05:12:16.711Z,3.36
2023-03-17T05:13:57.140Z,3.33
2023-03-17T05:15:37.474Z,3.33
2023-03-17T05:17:17.784Z,3.26
2023-03-17T05:18:58.184Z,3.23
2023-03-17T05:20:38.424Z,3.18
2023-03-17T05:22:18.753Z,3.15
2023-03-17T05:23:59.063Z,3.1
2023-03-17T05:25:39.391Z,3.05
2023-03-17T05:27:19.719Z,3.05
2023-03-17T05:29:00.019Z,3.02
2023-03-17T05:30:40.480Z,2.98
2023-03-17T05:32:20.919Z,2.89
2023-03-17T05:34:01.291Z,2.82
2023-03-17T05:35:41.889Z,2.81
2023-03-17T05:37:22.208Z,2.77
2023-03-17T05:39:02.571Z,2.72
2023-03-17T05:40:42.906Z,2.67
2023-03-17T05:42:23.343Z,2.65
2023-03-17T05:44:03.737Z,2.64
2023-03-17T05:45:44.247Z,2.64
2023-03-17T05:47:24.614Z,2.6
2023-03-17T05:49:05.053Z,2.55
2023-03-17T05:50:45.472Z,2.54
2023-03-17T05:52:25.901Z,2.51
2023-03-17T05:54:06.246Z,2.48
2023-03-17T05:55:46.672Z,2.45
2023-03-17T05:57:27.054Z,2.48
2023-03-17T05:59:07.425Z,2.52
2023-03-17T06:00:47.836Z,2.6
2023-03-17T06:02:28.262Z,2.62
2023-03-17T06:04:08.538Z,2.68
2023-03-17T06:05:48.873Z,2.78
2023-03-17T06:07:38.182Z,2.84
2023-03-17T06:09:09.478Z,2.92
2023-03-17T06:10:49.773Z,2.91
2023-03-17T06:12:30.072Z,2.91
2023-03-17T06:14:10.417Z,2.98
2023-03-17T06:15:50.768Z,2.92
2023-03-17T06:17:31.054Z,2.89
2023-03-17T06:19:11.402Z,2.87
2023-03-17T06:20:51.855Z,2.87
2023-03-17T06:22:32.261Z,2.88
2023-03-17T06:24:12.693Z,2.89
2023-03-17T06:25:53.128Z,2.94
2023-03-17T06:27:33.537Z,2.89
2023-03-17T06:29:14.000Z,2.89
2023-03-17T06:30:54.496Z,2.92
2023-03-17T06:32:34.884Z,2.94
2023-03-17T06:34:15.330Z,3.02
2023-03-17T06:35:55.824Z,3.1
2023-03-17T06:37:36.267Z,3.19
2023-03-17T06:39:16.638Z,3.3
2023-03-17T06:40:57.097Z,3.41
2023-03-17T06:42:37.457Z,3.49
2023-03-17T06:44:17.847Z,3.58
2023-03-17T06:45:58.471Z,3.66
2023-03-17T06:47:38.602Z,3.74
2023-03-17T06:49:18.981Z,3.79
2023-03-17T06:50:59.357Z,3.85
2023-03-17T06:52:39.755Z,3.89
2023-03-17T06:54:20.112Z,3.95
2023-03-17T06:56:00.599Z,3.99
2023-03-17T06:57:41.016Z,4.02
2023-03-17T06:59:21.417Z,4.08
2023-03-17T07:01:01.836Z,4.15
2023-03-17T07:02:42.344Z,4.28
2023-03-17T07:04:22.727Z,4.35
2023-03-17T07:06:03.145Z,4.44
2023-03-17T07:07:43.528Z,4.52
2023-03-17T07:09:23.852Z,4.67
2023-03-17T07:11:04.266Z,4.81
2023-03-17T07:12:44.599Z,4.96
2023-03-17T07:14:24.911Z,5.11
2023-03-17T07:16:05.410Z,5.22
2023-03-17T07:17:45.823Z,5.32
2023-03-17T07:19:26.177Z,5.47
2023-03-17T07:21:06.531Z,5.6
2023-03-17T07:22:46.980Z,5.69
2023-03-17T07:24:27.338Z,5.81
2023-03-17T07:26:07.782Z,5.91
2023-03-17T07:27:48.213Z,6.02
2023-03-17T07:29:28.603Z,6.14
2023-03-17T07:31:09.212Z,6.26
2023-03-17T07:32:49.588Z,6.43
2023-03-17T07:34:29.911Z,6.56
2023-03-17T07:36:10.377Z,6.72
2023-03-17T07:37:50.731Z,6.86
2023-03-17T07:39:31.145Z,6.98
2023-03-17T07:41:11.522Z,7.07
2023-03-17T07:42:51.852Z,7.08
2023-03-17T07:44:32.230Z,7.07
2023-03-17T07:46:12.741Z,7.17
2023-03-17T07:47:53.092Z,7.18
2023-03-17T07:49:41.264Z,7.27
2023-03-17T07:51:13.871Z,7.31
2023-03-17T07:52:54.412Z,7.31
2023-03-17T07:54:34.765Z,7.39
2023-03-17T07:56:15.199Z,7.45
2023-03-17T07:57:55.723Z,7.44
2023-03-17T07:59:36.003Z,7.55
2023-03-17T08:01:16.436Z,7.79
2023-03-17T08:03:09.503Z,7.98
2023-03-17T08:04:37.257Z,8.21
2023-03-17T08:06:17.709Z,8.47
2023-03-17T08:07:58.074Z,8.66
2023-03-17T08:09:38.512Z,8.82
2023-03-17T08:11:18.923Z,9
2023-03-17T08:12:59.216Z,9.21
2023-03-17T08:14:39.607Z,9.38
2023-03-17T08:16:20.060Z,9.5
2023-03-17T08:18:00.384Z,9.77
2023-03-17T08:19:40.738Z,9.96
2023-03-17T08:21:21.054Z,10.19
2023-03-17T08:23:01.376Z,10.39
2023-03-17T08:24:41.702Z,10.58
2023-03-17T08:26:21.995Z,10.81
2023-03-17T08:28:02.275Z,11.06
2023-03-17T08:29:42.729Z,11.32
2023-03-17T08:31:23.236Z,11.52
2023-03-17T08:33:03.635Z,11.64
2023-03-17T08:34:43.983Z,11.76
2023-03-17T08:36:24.372Z,11.84
2023-03-17T08:38:04.739Z,11.92
2023-03-17T08:39:45.176Z,12.05
2023-03-17T08:41:25.541Z,12.38
2023-03-17T08:43:05.975Z,12.53
2023-03-17T08:44:46.440Z,12.64
2023-03-17T08:46:26.909Z,12.67
2023-03-17T08:48:07.246Z,12.83
2023-03-17T08:49:47.695Z,12.96
2023-03-17T08:51:28.073Z,12.94
2023-03-17T08:53:08.498Z,12.96
2023-03-17T08:54:48.868Z,13.07
2023-03-17T08:56:29.420Z,12.9
2023-03-17T08:58:09.788Z,12.9
2023-03-17T08:59:50.196Z,13.11
2023-03-17T09:01:30.683Z,13.01
2023-03-17T09:03:11.024Z,12.93
2023-03-17T09:04:51.361Z,12.91
2023-03-17T09:06:31.722Z,12.97
2023-03-17T09:08:12.182Z,13.03
2023-03-17T09:09:52.549Z,13.04
2023-03-17T09:11:32.909Z,13.11
2023-03-17T09:13:13.282Z,12.96
2023-03-17T09:14:53.721Z,13.11
2023-03-17T09:16:34.328Z,13.19
2023-03-17T09:18:14.495Z,13.11
2023-03-17T09:19:54.960Z,13.15
2023-03-17T09:21:35.313Z,13.22
2023-03-17T09:23:15.736Z,13.22
2023-03-17T09:24:56.125Z,13.24
2023-03-17T09:26:36.588Z,13.33
2023-03-17T09:28:17.053Z,13.25
2023-03-17T09:29:57.449Z,13.24
2023-03-17T09:31:37.863Z,13.34
2023-03-17T09:33:18.259Z,13.55
2023-03-17T09:34:58.675Z,13.66
2023-03-17T09:36:39.157Z,13.79
2023-03-17T09:38:19.663Z,13.8
2023-03-17T09:40:00.109Z,13.7
2023-03-17T09:41:40.570Z,13.73
2023-03-17T09:43:20.968Z,13.82
2023-03-17T09:45:01.332Z,13.9
2023-03-17T09:46:41.791Z,14.07
2023-03-17T09:48:22.227Z,14.2
2023-03-17T09:50:02.665Z,14.28
2023-03-17T09:51:43.092Z,14.45
2023-03-17T09:53:23.601Z,14.72
2023-03-17T09:55:03.974Z,14.83
2023-03-17T09:56:44.433Z,14.9
2023-03-17T09:58:24.858Z,15.06
2023-03-17T10:00:05.207Z,15.13
2023-03-17T10:01:45.589Z,15.22
2023-03-17T10:03:26.057Z,15.4
2023-03-17T10:05:06.439Z,15.46
2023-03-17T10:06:46.803Z,15.56
2023-03-17T10:08:31.668Z,15.75
2023-03-17T10:10:07.400Z,15.96
2023-03-17T10:11:47.692Z,16.04
2023-03-17T10:13:28.005Z,16.02
2023-03-17T10:15:08.284Z,16.06
2023-03-17T10:16:48.621Z,16.15
2023-03-17T10:18:28.998Z,16.2
2023-03-17T10:20:09.369Z,16.36
2023-03-17T10:21:49.745Z,16.4
2023-03-17T10:23:30.165Z,16.42
2023-03-17T10:25:10.555Z,16.44
2023-03-17T10:26:51.031Z,16.29
2023-03-17T10:28:31.378Z,16.52
2023-03-17T10:30:11.805Z,16.71
2023-03-17T10:31:52.259Z,17
2023-03-17T10:33:32.624Z,17.22
2023-03-17T10:35:12.930Z,17.29
2023-03-17T10:36:53.290Z,17.19
2023-03-17T10:38:33.627Z,17.19
2023-03-17T10:40:13.975Z,17.17
2023-03-17T10:41:54.334Z,17.17
2023-03-17T10:43:34.753Z,17.32
2023-03-17T10:45:15.242Z,17.39
2023-03-17T10:46:55.852Z,17.43
2023-03-17T10:48:36.204Z,17.49
2023-03-17T10:50:16.627Z,17.43
2023-03-17T10:51:57.036Z,17.49
2023-03-17T10:53:37.456Z,17.46
2023-03-17T10:55:17.804Z,17.52
2023-03-17T10:56:59.249Z,17.67
2023-03-17T10:58:38.607Z,17.76
2023-03-17T11:00:19.262Z,17.7
2023-03-17T11:01:59.374Z,17.81
2023-03-17T11:03:39.879Z,17.93
2023-03-17T11:05:20.196Z,18.07
2023-03-17T11:07:00.634Z,18
2023-03-17T11:08:41.069Z,17.97
2023-03-17T11:10:21.466Z,18.07
2023-03-17T11:12:01.881Z,18.03
2023-03-17T11:13:42.247Z,18.18
2023-03-17T11:15:22.690Z,18.25
2023-03-17T11:17:03.116Z,18.32
2023-03-17T11:18:43.490Z,18.46
2023-03-17T11:20:23.868Z,18.55
2023-03-17T11:22:04.230Z,18.62
2023-03-17T11:23:44.545Z,18.36
2023-03-17T11:25:24.871Z,18.11
2023-03-17T11:27:05.276Z,18.08
2023-03-17T11:28:45.699Z,18.25
2023-03-17T11:30:26.147Z,18.12
2023-03-17T11:32:06.641Z,17.96
2023-03-17T11:33:46.951Z,18.01
2023-03-17T11:35:27.425Z,18.23
2023-03-17T11:37:07.889Z,18.31
2023-03-17T11:38:48.164Z,18.12
2023-03-17T11:40:29.039Z,18.29
2023-03-17T11:42:09.007Z,18.32
2023-03-17T11:43:49.452Z,18.38
2023-03-17T11:45:29.776Z,18.29
2023-03-17T11:47:10.094Z,18.49
2023-03-17T11:48:50.537Z,18.56
2023-03-17T11:50:31.453Z,18.56
2023-03-17T11:52:11.283Z,18.63
2023-03-17T11:53:51.697Z,18.65
2023-03-17T11:55:32.127Z,18.69
2023-03-17T11:57:12.565Z,18.52
2023-03-17T11:58:52.900Z,18.56
2023-03-17T12:00:33.954Z,18.6
2023-03-17T12:02:13.491Z,18.6
2023-03-17T12:03:53.834Z,18.67
2023-03-17T12:05:34.098Z,18.84
2023-03-17T12:07:14.577Z,18.79
2023-03-17T12:08:54.978Z,18.63
2023-03-17T12:10:35.387Z,18.59
2023-03-17T12:12:16.344Z,18.48
2023-03-17T12:13:56.167Z,18.49
2023-03-17T12:15:36.701Z,18.66
2023-03-17T12:17:17.124Z,18.66
2023-03-17T12:18:57.590Z,18.67
2023-03-17T12:20:38.034Z,18.38
2023-03-17T12:22:18.502Z,18.35
2023-03-17T12:23:58.918Z,18.28
2023-03-17T12:25:39.352Z,18.15
2023-03-17T12:27:19.768Z,18.09
2023-03-17T12:29:00.163Z,18.03
2023-03-17T12:30:40.642Z,17.94
2023-03-17T12:32:21.086Z,17.83
2023-03-17T12:34:01.511Z,17.67
2023-03-17T12:35:41.965Z,17.57
2023-03-17T12:37:22.203Z,17.49
2023-03-17T12:39:02.576Z,17.39
2023-03-17T12:40:42.970Z,17.35
2023-03-17T12:42:23.349Z,17.25
2023-03-17T12:44:03.766Z,17.22
2023-03-17T12:45:44.039Z,17.12
2023-03-17T12:47:24.359Z,17.05
2023-03-17T12:49:04.687Z,17
2023-03-17T12:50:45.111Z,16.88
2023-03-17T12:52:25.490Z,16.87
2023-03-17T12:54:05.847Z,16.82
2023-03-17T12:55:46.190Z,16.82
2023-03-17T12:57:26.581Z,16.82
2023-03-17T12:59:07.047Z,16.87
2023-03-17T13:00:47.419Z,16.77
2023-03-17T13:02:27.819Z,16.74
2023-03-17T13:04:08.198Z,16.73
2023-03-17T13:05:48.669Z,16.73
2023-03-17T13:07:29.109Z,16.75
2023-03-17T13:09:09.528Z,16.8
2023-03-17T13:10:50.005Z,16.84
2023-03-17T13:12:30.358Z,16.77
2023-03-17T13:14:10.775Z,16.75
2023-03-17T13:15:51.265Z,16.71
2023-03-17T13:17:31.672Z,16.77
2023-03-17T13:19:11.930Z,16.77
2023-03-17T13:20:52.364Z,16.75
2023-03-17T13:22:32.717Z,16.75
2023-03-17T13:24:13.153Z,16.81
2023-03-17T13:25:53.804Z,16.75
2023-03-17T13:27:33.928Z,16.77
2023-03-17T13:29:14.333Z,16.8
2023-03-17T13:30:54.786Z,16.84
2023-03-17T13:32:35.264Z,16.74
2023-03-17T13:34:15.625Z,16.74
2023-03-17T13:35:56.076Z,16.66
2023-03-17T13:37:36.405Z,16.57
2023-03-17T13:39:19.671Z,16.5
2023-03-17T13:40:57.173Z,16.47
2023-03-17T13:42:37.582Z,16.39
2023-03-17T13:44:17.972Z,16.39
2023-03-17T13:45:58.424Z,16.36
2023-03-17T13:47:38.770Z,16.29
2023-03-17T13:49:19.049Z,16.29
2023-03-17T13:50:59.320Z,16.29
2023-03-17T13:52:39.722Z,16.33
2023-03-17T13:54:20.038Z,16.34
2023-03-17T13:56:00.435Z,16.4
2023-03-17T13:57:40.777Z,16.44
2023-03-17T13:59:21.255Z,16.47
2023-03-17T14:01:01.817Z,16.47
2023-03-17T14:02:42.197Z,16.49
2023-03-17T14:04:22.685Z,16.54
2023-03-17T14:06:03.098Z,16.49
2023-03-17T14:07:43.455Z,16.52
2023-03-17T14:09:23.783Z,16.5
2023-03-17T14:11:04.268Z,16.44
2023-03-17T14:12:44.668Z,16.47
2023-03-17T14:14:32.939Z,16.46
2023-03-17T14:16:05.629Z,16.49
2023-03-17T14:17:45.929Z,16.5
2023-03-17T14:19:26.353Z,16.5
2023-03-17T14:21:10.462Z,16.47
2023-03-17T14:22:47.155Z,16.44
2023-03-17T14:24:27.582Z,16.36
2023-03-17T14:26:07.874Z,16.34
2023-03-17T14:27:48.284Z,16.33
2023-03-17T14:29:28.692Z,16.29
2023-03-17T14:31:09.104Z,16.23
2023-03-17T14:32:49.648Z,16.17
2023-03-17T14:34:29.935Z,16.13
2023-03-17T14:36:12.252Z,16.08
2023-03-17T14:37:50.773Z,16.05
2023-03-17T14:39:31.193Z,16.01
2023-03-17T14:41:11.643Z,15.98
2023-03-17T14:42:52.025Z,15.94
2023-03-17T14:44:32.328Z,15.89
2023-03-17T14:46:12.774Z,15.88
2023-03-17T14:47:53.077Z,15.84
2023-03-17T14:49:33.445Z,15.82
2023-03-17T14:51:13.815Z,15.77
2023-03-17T14:52:54.283Z,15.75
2023-03-17T14:54:34.722Z,15.68
2023-03-17T14:56:15.168Z,15.71
2023-03-17T14:57:55.569Z,15.67
2023-03-17T14:59:35.867Z,15.61
2023-03-17T15:01:16.269Z,15.6
2023-03-17T15:02:56.611Z,15.61
2023-03-17T15:04:37.036Z,15.54
2023-03-17T15:06:17.417Z,15.54
2023-03-17T15:07:57.873Z,15.51
2023-03-17T15:09:38.182Z,15.51
2023-03-17T15:11:18.557Z,15.54
2023-03-17T15:12:58.957Z,15.51
2023-03-17T15:14:39.468Z,15.51
2023-03-17T15:16:19.870Z,15.48
2023-03-17T15:18:00.193Z,15.5
2023-03-17T15:19:40.590Z,15.53
2023-03-17T15:21:21.035Z,15.51
2023-03-17T15:23:01.390Z,15.5
2023-03-17T15:24:41.806Z,15.47
2023-03-17T15:26:22.286Z,15.48
2023-03-17T15:28:02.572Z,15.48
2023-03-17T15:29:42.925Z,15.47
2023-03-17T15:31:23.428Z,15.44
2023-03-17T15:33:03.767Z,15.41
2023-03-17T15:34:44.166Z,15.38
2023-03-17T15:36:32.307Z,15.37
2023-03-17T15:38:04.725Z,15.38
2023-03-17T15:39:45.110Z,15.36
2023-03-17T15:41:25.418Z,15.33
2023-03-17T15:43:05.766Z,15.3
2023-03-17T15:44:46.134Z,15.27
2023-03-17T15:46:26.595Z,15.25
2023-03-17T15:48:07.026Z,15.23
2023-03-17T15:49:47.351Z,15.2
2023-03-17T15:51:27.779Z,15.16
2023-03-17T15:53:08.151Z,15.13
2023-03-17T15:54:48.590Z,15.05
2023-03-17T15:56:28.915Z,15.1
2023-03-17T15:58:09.252Z,15.05
2023-03-17T15:59:49.659Z,15.02
2023-03-17T16:01:30.113Z,15.03
2023-03-17T16:03:10.401Z,15.02
2023-03-17T16:04:50.838Z,15
2023-03-17T16:06:31.266Z,14.99
2023-03-17T16:08:11.641Z,14.96
2023-03-17T16:09:52.115Z,14.93
2023-03-17T16:11:32.518Z,14.93
2023-03-17T16:13:13.029Z,14.86
2023-03-17T16:14:53.325Z,14.88
2023-03-17T16:16:33.608Z,14.85
2023-03-17T16:18:14.032Z,14.83
2023-03-17T16:19:54.402Z,14.83
2023-03-17T16:21:34.687Z,14.78
2023-03-17T16:23:15.135Z,14.76
2023-03-17T16:24:55.652Z,14.72
2023-03-17T16:26:39.051Z,14.71
2023-03-17T16:28:16.486Z,14.65
2023-03-17T16:29:56.845Z,14.62
2023-03-17T16:31:37.357Z,14.57
2023-03-17T16:33:17.647Z,14.49
2023-03-17T16:34:58.037Z,14.51
2023-03-17T16:36:38.399Z,14.44
2023-03-17T16:38:18.730Z,14.28
2023-03-17T16:39:59.170Z,14.23
2023-03-17T16:41:39.536Z,14.21
2023-03-17T16:43:25.296Z,14.16
2023-03-17T16:45:00.286Z,14.06
2023-03-17T16:46:40.662Z,14
2023-03-17T16:48:21.011Z,13.9
2023-03-17T16:50:01.358Z,13.77
2023-03-17T16:51:41.701Z,13.7
2023-03-17T16:53:21.997Z,13.63
2023-03-17T16:55:02.410Z,13.59
2023-03-17T16:56:42.891Z,13.51
2023-03-17T16:58:23.110Z,13.46
2023-03-17T17:00:03.533Z,13.39
2023-03-17T17:01:43.963Z,13.33
2023-03-17T17:03:24.220Z,13.28
2023-03-17T17:05:04.590Z,13.24
2023-03-17T17:06:44.894Z,13.19
2023-03-17T17:08:25.237Z,13.13
2023-03-17T17:10:05.566Z,13.03
2023-03-17T17:11:45.855Z,12.96
2023-03-17T17:13:26.309Z,12.9
2023-03-17T17:15:06.767Z,12.84
2023-03-17T17:16:47.199Z,12.87
2023-03-17T17:18:27.621Z,12.86
2023-03-17T17:20:08.061Z,12.83
2023-03-17T17:21:48.476Z,12.77
2023-03-17T17:23:28.859Z,12.73
2023-03-17T17:25:09.320Z,12.69
2023-03-17T17:26:49.664Z,12.66
2023-03-17T17:28:29.997Z,12.62
2023-03-17T17:30:10.362Z,12.59
2023-03-17T17:31:50.932Z,12.57
2023-03-17T17:33:31.171Z,12.5
2023-03-17T17:35:11.520Z,12.48
2023-03-17T17:36:51.963Z,12.46
2023-03-17T17:38:32.329Z,12.4
2023-03-17T17:40:12.749Z,12.38
2023-03-17T17:41:53.165Z,12.36
2023-03-17T17:43:33.536Z,12.35
2023-03-17T17:45:13.761Z,12.33
2023-03-17T17:46:54.109Z,12.28
2023-03-17T17:48:34.365Z,12.28
2023-03-17T17:50:14.818Z,12.28
2023-03-17T17:51:55.199Z,12.28
2023-03-17T17:53:35.560Z,12.28
2023-03-17T17:55:15.954Z,12.24
2023-03-17T17:56:56.316Z,12.18
2023-03-17T17:58:36.704Z,12.14
2023-03-17T18:00:17.129Z,12.09
2023-03-17T18:01:57.461Z,12.02
2023-03-17T18:03:37.873Z,12
2023-03-17T18:05:18.265Z,12.02
2023-03-17T18:06:58.729Z,12
2023-03-17T18:08:39.058Z,11.98
2023-03-17T18:10:19.521Z,11.94
2023-03-17T18:11:59.828Z,11.94
2023-03-17T18:13:40.195Z,11.95
2023-03-17T18:15:20.614Z,11.94
2023-03-17T18:17:01.062Z,11.91
2023-03-17T18:18:41.456Z,11.9
2023-03-17T18:20:21.874Z,11.85
2023-03-17T18:22:02.296Z,11.82
2023-03-17T18:23:42.653Z,11.76
2023-03-17T18:25:23.041Z,11.7
2023-03-17T18:27:03.410Z,11.69
2023-03-17T18:28:43.822Z,11.64
2023-03-17T18:30:24.226Z,11.63
2023-03-17T18:32:04.631Z,11.56
2023-03-17T18:33:45.014Z,11.5
2023-03-17T18:35:25.464Z,11.46
2023-03-17T18:37:05.686Z,11.44
2023-03-17T18:38:46.041Z,11.49
2023-03-17T18:40:26.443Z,11.5
2023-03-17T18:42:06.783Z,11.49
2023-03-17T18:43:54.241Z,11.49
2023-03-17T18:45:27.624Z,11.47
2023-03-17T18:47:08.093Z,11.42
2023-03-17T18:48:48.556Z,11.37
2023-03-17T18:50:29.000Z,11.34
2023-03-17T18:52:09.348Z,11.29
2023-03-17T18:53:49.746Z,11.26
2023-03-17T18:55:30.086Z,11.25
2023-03-17T18:57:10.516Z,11.19
2023-03-17T18:58:50.834Z,11.21
2023-03-17T19:00:34.247Z,11.16
2023-03-17T19:02:11.565Z,11.16
2023-03-17T19:03:51.977Z,11.05
2023-03-17T19:05:32.309Z,10.99
2023-03-17T19:07:12.605Z,10.92
2023-03-17T19:08:52.993Z,10.9
2023-03-17T19:10:33.905Z,10.79
2023-03-17T19:12:13.738Z,10.74
2023-03-17T19:13:54.162Z,10.71
2023-03-17T19:15:34.614Z,10.63
2023-03-17T19:17:14.970Z,10.56
2023-03-17T19:18:55.346Z,10.47
2023-03-17T19:20:35.809Z,10.43
2023-03-17T19:22:16.230Z,10.37
2023-03-17T19:23:56.596Z,10.32
2023-03-17T19:25:36.958Z,10.24
2023-03-17T19:27:17.299Z,10.21
2023-03-17T19:28:57.651Z,10.2
2023-03-17T19:30:38.065Z,10.17
2023-03-17T19:32:18.531Z,10.12
2023-03-17T19:33:58.921Z,10.05
2023-03-17T19:35:39.384Z,10
2023-03-17T19:37:19.791Z,9.98
2023-03-17T19:39:00.116Z,9.98
2023-03-17T19:40:40.563Z,9.96
2023-03-17T19:42:20.973Z,9.95
2023-03-17T19:44:01.322Z,9.95
2023-03-17T19:45:41.734Z,9.98
2023-03-17T19:47:22.143Z,10
2023-03-17T19:49:02.535Z,10.05
2023-03-17T19:50:43.007Z,10.05
2023-03-17T19:52:23.424Z,10.02
2023-03-17T19:54:03.829Z,9.96
2023-03-17T19:55:44.241Z,9.9
2023-03-17T19:57:24.651Z,9.88
2023-03-17T19:59:05.075Z,9.84
2023-03-17T20:00:45.504Z,9.79
2023-03-17T20:02:25.971Z,9.78
2023-03-17T20:04:06.395Z,9.78
2023-03-17T20:05:46.724Z,9.79
2023-03-17T20:07:27.266Z,9.85
2023-03-17T20:09:07.605Z,9.92
2023-03-17T20:10:48.137Z,9.95
2023-03-17T20:12:28.417Z,10.02
2023-03-17T20:14:08.836Z,10.12
2023-03-17T20:15:49.336Z,10.17
2023-03-17T20:17:29.681Z,10.32
2023-03-17T20:19:10.065Z,10.3
2023-03-17T20:20:50.449Z,10.26
2023-03-17T20:22:30.852Z,10.16
2023-03-17T20:24:11.225Z,10.14
2023-03-17T20:25:51.691Z,10.14
2023-03-17T20:27:32.042Z,10.1
2023-03-17T20:29:12.448Z,10.05
2023-03-17T20:30:52.819Z,10
2023-03-17T20:32:33.311Z,9.95
2023-03-17T20:34:13.647Z,9.89
2023-03-17T20:35:54.057Z,9.85
2023-03-17T20:37:34.425Z,9.81
2023-03-17T20:39:14.829Z,9.77
2023-03-17T20:40:55.142Z,9.68
2023-03-17T20:42:35.566Z,9.61
2023-03-17T20:44:15.966Z,9.55
2023-03-17T20:45:56.280Z,9.52
2023-03-17T20:47:36.672Z,9.5
2023-03-17T20:49:17.108Z,9.47
2023-03-17T20:50:57.393Z,9.45
2023-03-17T20:52:37.694Z,9.45
2023-03-17T20:54:18.118Z,9.44
2023-03-17T20:55:58.466Z,9.41
2023-03-17T20:57:38.924Z,9.41
2023-03-17T20:59:22.437Z,9.4
2023-03-17T21:00:59.738Z,9.33
2023-03-17T21:02:40.205Z,9.27
2023-03-17T21:04:20.553Z,9.23
2023-03-17T21:06:00.946Z,9.2
2023-03-17T21:07:41.356Z,9.19
2023-03-17T21:09:21.756Z,9.17
2023-03-17T21:11:02.127Z,9.21
2023-03-17T21:12:42.590Z,9.33
2023-03-17T21:14:22.976Z,9.42
2023-03-17T21:16:03.503Z,9.48
2023-03-17T21:17:43.897Z,9.55
2023-03-17T21:19:24.363Z,9.58
2023-03-17T21:21:04.669Z,9.58
2023-03-17T21:22:45.013Z,9.58
2023-03-17T21:24:25.428Z,9.52
2023-03-17T21:26:05.780Z,9.52
2023-03-17T21:27:46.169Z,9.59
2023-03-17T21:29:26.598Z,9.65
2023-03-17T21:31:07.031Z,9.74
2023-03-17T21:32:47.528Z,9.77
2023-03-17T21:34:27.808Z,9.84
2023-03-17T21:36:08.170Z,9.9
2023-03-17T21:37:48.527Z,9.99
2023-03-17T21:39:29.724Z,10.02
2023-03-17T21:41:09.264Z,10.16
2023-03-17T21:42:49.639Z,10.21
2023-03-17T21:44:30.045Z,10.26
2023-03-17T21:46:10.484Z,10.26
2023-03-17T21:47:50.811Z,10.32
2023-03-17T21:49:31.178Z,10.27
2023-03-17T21:51:11.587Z,10.32
2023-03-17T21:52:51.977Z,10.37
2023-03-17T21:54:32.325Z,10.4
2023-03-17T21:56:12.705Z,10.43
2023-03-17T21:57:53.035Z,10.48